sensor_id;sensor_type;location;lat;lon;timestamp;pressure;altitude;pressure_sealevel;temperature;humidity
68871;BME280;55906;52.278;6.808;2023-05-03T00:01:11;102794.00;;;6.68;66.48
68871;BME280;55906;52.278;6.808;2023-05-03T00:03:37;102795.47;;;6.65;67.23
68871;BME280;55906;52.278;6.808;2023-05-03T00:06:11;102799.69;;;6.63;66.86
68871;BME280;55906;52.278;6.808;2023-05-03T00:08:38;102802.19;;;6.61;66.79
68871;BME280;55906;52.278;6.808;2023-05-03T00:11:06;102794.22;;;6.60;66.00
68871;BME280;55906;52.278;6.808;2023-05-03T00:13:33;102795.72;;;6.56;66.65
68871;BME280;55906;52.278;6.808;2023-05-03T00:16:01;102797.19;;;6.53;66.83
68871;BME280;55906;52.278;6.808;2023-05-03T00:18:28;102790.81;;;6.49;66.92
68871;BME280;55906;52.278;6.808;2023-05-03T00:20:55;102801.25;;;6.49;67.75
68871;BME280;55906;52.278;6.808;2023-05-03T00:23:23;102800.13;;;6.46;67.30
68871;BME280;55906;52.278;6.808;2023-05-03T00:25:51;102791.03;;;6.40;67.38
68871;BME280;55906;52.278;6.808;2023-05-03T00:28:18;102785.59;;;6.37;67.76
68871;BME280;55906;52.278;6.808;2023-05-03T00:30:45;102786.28;;;6.35;67.20
68871;BME280;55906;52.278;6.808;2023-05-03T00:33:13;102785.13;;;6.31;67.98
68871;BME280;55906;52.278;6.808;2023-05-03T00:35:40;102784.78;;;6.27;67.51
68871;BME280;55906;52.278;6.808;2023-05-03T00:38:07;102790.81;;;6.26;68.06
68871;BME280;55906;52.278;6.808;2023-05-03T00:40:34;102797.53;;;6.22;67.73
68871;BME280;55906;52.278;6.808;2023-05-03T00:43:00;102804.34;;;6.20;67.85
68871;BME280;55906;52.278;6.808;2023-05-03T00:45:28;102804.22;;;6.19;68.83
68871;BME280;55906;52.278;6.808;2023-05-03T00:47:55;102798.88;;;6.17;67.83
68871;BME280;55906;52.278;6.808;2023-05-03T00:50:24;102801.50;;;6.17;68.08
68871;BME280;55906;52.278;6.808;2023-05-03T00:52:50;102802.19;;;6.15;67.88
68871;BME280;55906;52.278;6.808;2023-05-03T00:55:17;102801.03;;;6.11;67.42
68871;BME280;55906;52.278;6.808;2023-05-03T00:57:44;102816.47;;;6.08;67.47
68871;BME280;55906;52.278;6.808;2023-05-03T01:00:12;102806.81;;;6.07;68.73
68871;BME280;55906;52.278;6.808;2023-05-03T01:02:38;102809.31;;;6.05;67.92
68871;BME280;55906;52.278;6.808;2023-05-03T01:05:06;102802.97;;;6.02;68.02
68871;BME280;55906;52.278;6.808;2023-05-03T01:07:40;102801.03;;;5.99;67.84
68871;BME280;55906;52.278;6.808;2023-05-03T01:10:18;102804.31;;;5.97;68.49
68871;BME280;55906;52.278;6.808;2023-05-03T01:12:54;102805.78;;;5.93;68.55
68871;BME280;55906;52.278;6.808;2023-05-03T01:15:31;102802.16;;;5.91;69.25
68871;BME280;55906;52.278;6.808;2023-05-03T01:18:06;102801.88;;;5.88;69.19
68871;BME280;55906;52.278;6.808;2023-05-03T01:20:37;102804.16;;;5.84;68.56
68871;BME280;55906;52.278;6.808;2023-05-03T01:23:10;102802.22;;;5.81;68.42
68871;BME280;55906;52.278;6.808;2023-05-03T01:25:41;102801.75;;;5.75;69.14
68871;BME280;55906;52.278;6.808;2023-05-03T01:35:03;102793.53;;;5.59;70.30
68871;BME280;55906;52.278;6.808;2023-05-03T01:37:30;102799.31;;;5.55;70.22
68871;BME280;55906;52.278;6.808;2023-05-03T01:40:00;102794.75;;;5.52;70.54
68871;BME280;55906;52.278;6.808;2023-05-03T01:42:29;102804.19;;;5.50;70.53
68871;BME280;55906;52.278;6.808;2023-05-03T01:44:58;102800.41;;;5.46;70.56
68871;BME280;55906;52.278;6.808;2023-05-03T01:47:24;102804.59;;;5.44;70.80
68871;BME280;55906;52.278;6.808;2023-05-03T01:49:51;102801.88;;;5.43;70.61
68871;BME280;55906;52.278;6.808;2023-05-03T01:52:18;102810.16;;;5.37;70.47
68871;BME280;55906;52.278;6.808;2023-05-03T01:54:45;102807.41;;;5.36;70.81
68871;BME280;55906;52.278;6.808;2023-05-03T01:57:11;102821.25;;;5.35;70.19
68871;BME280;55906;52.278;6.808;2023-05-03T01:59:40;102819.44;;;5.34;70.56
68871;BME280;55906;52.278;6.808;2023-05-03T02:02:07;102825.31;;;5.31;70.65
68871;BME280;55906;52.278;6.808;2023-05-03T02:04:34;102816.47;;;5.29;71.52
68871;BME280;55906;52.278;6.808;2023-05-03T02:07:02;102816.34;;;5.28;71.33
68871;BME280;55906;52.278;6.808;2023-05-03T02:09:28;102823.16;;;5.26;70.63
68871;BME280;55906;52.278;6.808;2023-05-03T02:11:55;102830.84;;;5.24;71.04
68871;BME280;55906;52.278;6.808;2023-05-03T02:14:22;102835.94;;;5.23;71.01
68871;BME280;55906;52.278;6.808;2023-05-03T02:16:49;102838.56;;;5.23;71.35
68871;BME280;55906;52.278;6.808;2023-05-03T02:19:19;102835.94;;;5.23;70.60
68871;BME280;55906;52.278;6.808;2023-05-03T02:21:46;102838.56;;;5.23;70.84
68871;BME280;55906;52.278;6.808;2023-05-03T02:24:13;102841.16;;;5.23;70.96
68871;BME280;55906;52.278;6.808;2023-05-03T02:26:39;102840.13;;;5.21;70.85
68871;BME280;55906;52.278;6.808;2023-05-03T02:29:06;102829.31;;;5.16;71.55
68871;BME280;55906;52.278;6.808;2023-05-03T02:31:32;102826.56;;;5.14;70.73
68871;BME280;55906;52.278;6.808;2023-05-03T02:34:00;102812.63;;;5.14;70.94
68871;BME280;55906;52.278;6.808;2023-05-03T02:36:27;102816.13;;;5.14;71.14
68871;BME280;55906;52.278;6.808;2023-05-03T02:38:54;102813.16;;;5.10;71.31
68871;BME280;55906;52.278;6.808;2023-05-03T02:41:20;102806.91;;;5.08;71.75
68871;BME280;55906;52.278;6.808;2023-05-03T02:43:47;102812.00;;;5.06;71.33
68871;BME280;55906;52.278;6.808;2023-05-03T02:46:13;102802.38;;;5.05;71.34
68871;BME280;55906;52.278;6.808;2023-05-03T02:48:40;102809.84;;;5.01;70.76
68871;BME280;55906;52.278;6.808;2023-05-03T02:51:08;102802.66;;;4.98;71.75
68871;BME280;55906;52.278;6.808;2023-05-03T02:53:34;102798.25;;;4.97;72.17
68871;BME280;55906;52.278;6.808;2023-05-03T02:56:01;102799.81;;;4.95;71.59
68871;BME280;55906;52.278;6.808;2023-05-03T02:58:28;102793.56;;;4.93;72.00
68871;BME280;55906;52.278;6.808;2023-05-03T03:00:55;102791.75;;;4.92;72.22
68871;BME280;55906;52.278;6.808;2023-05-03T03:03:21;102789.81;;;4.90;71.41
68871;BME280;55906;52.278;6.808;2023-05-03T03:05:48;102791.50;;;4.89;72.31
68871;BME280;55906;52.278;6.808;2023-05-03T03:08:16;102782.78;;;4.89;72.06
68871;BME280;55906;52.278;6.808;2023-05-03T03:10:43;102785.28;;;4.87;71.49
68871;BME280;55906;52.278;6.808;2023-05-03T03:13:10;102781.50;;;4.83;71.59
68871;BME280;55906;52.278;6.808;2023-05-03T03:15:36;102789.44;;;4.85;71.66
68871;BME280;55906;52.278;6.808;2023-05-03T03:18:03;102779.81;;;4.84;71.11
68871;BME280;55906;52.278;6.808;2023-05-03T03:20:30;102785.03;;;4.84;71.79
68871;BME280;55906;52.278;6.808;2023-05-03T03:22:56;102784.00;;;4.82;71.89
68871;BME280;55906;52.278;6.808;2023-05-03T03:25:24;102781.25;;;4.80;72.16
68871;BME280;55906;52.278;6.808;2023-05-03T03:27:51;102784.00;;;4.82;71.55
68871;BME280;55906;52.278;6.808;2023-05-03T03:30:18;102783.09;;;4.81;71.93
68871;BME280;55906;52.278;6.808;2023-05-03T03:32:44;102778.78;;;4.82;72.11
68871;BME280;55906;52.278;6.808;2023-05-03T03:35:12;102777.09;;;4.82;72.27
68871;BME280;55906;52.278;6.808;2023-05-03T03:37:39;102774.59;;;4.84;71.74
68871;BME280;55906;52.278;6.808;2023-05-03T03:40:07;102773.56;;;4.82;71.78
68871;BME280;55906;52.278;6.808;2023-05-03T03:42:35;102768.34;;;4.82;71.80
68871;BME280;55906;52.278;6.808;2023-05-03T03:45:02;102759.50;;;4.80;71.68
68871;BME280;55906;52.278;6.808;2023-05-03T03:47:29;102761.97;;;4.78;71.95
68871;BME280;55906;52.278;6.808;2023-05-03T03:49:56;102759.13;;;4.75;71.74
68871;BME280;55906;52.278;6.808;2023-05-03T03:52:23;102754.59;;;4.73;71.93
68871;BME280;55906;52.278;6.808;2023-05-03T03:54:50;102749.91;;;4.69;72.42
68871;BME280;55906;52.278;6.808;2023-05-03T03:57:16;102757.63;;;4.67;72.31
68871;BME280;55906;52.278;6.808;2023-05-03T03:59:44;102755.66;;;4.65;72.34
68871;BME280;55906;52.278;6.808;2023-05-03T04:02:11;102758.03;;;4.62;72.61
68871;BME280;55906;52.278;6.808;2023-05-03T04:04:37;102758.69;;;4.59;72.74
68871;BME280;55906;52.278;6.808;2023-05-03T04:07:04;102761.44;;;4.61;72.82
68871;BME280;55906;52.278;6.808;2023-05-03T04:09:31;102764.81;;;4.60;72.87
68871;BME280;55906;52.278;6.808;2023-05-03T04:11:57;102760.50;;;4.60;72.45
68871;BME280;55906;52.278;6.808;2023-05-03T04:14:24;102772.63;;;4.60;72.50
68871;BME280;55906;52.278;6.808;2023-05-03T04:16:52;102774.47;;;4.61;72.80
68871;BME280;55906;52.278;6.808;2023-05-03T04:19:18;102785.53;;;4.58;72.18
68871;BME280;55906;52.278;6.808;2023-05-03T04:21:46;102780.75;;;4.53;73.05
68871;BME280;55906;52.278;6.808;2023-05-03T04:24:14;102790.38;;;4.54;72.64
68871;BME280;55906;52.278;6.808;2023-05-03T04:26:41;102782.44;;;4.52;73.25
68871;BME280;55906;52.278;6.808;2023-05-03T04:29:08;102789.72;;;4.56;73.28
68871;BME280;55906;52.278;6.808;2023-05-03T04:31:35;102793.13;;;4.55;73.45
68871;BME280;55906;52.278;6.808;2023-05-03T04:34:04;102796.75;;;4.57;73.21
68871;BME280;55906;52.278;6.808;2023-05-03T04:36:32;102801.19;;;4.58;73.18
68871;BME280;55906;52.278;6.808;2023-05-03T04:38:58;102806.09;;;4.65;73.37
68871;BME280;55906;52.278;6.808;2023-05-03T04:41:25;102807.88;;;4.76;72.72
68871;BME280;55906;52.278;6.808;2023-05-03T04:43:52;102818.91;;;4.84;72.68
68871;BME280;55906;52.278;6.808;2023-05-03T04:46:18;102812.78;;;4.83;72.92
68871;BME280;55906;52.278;6.808;2023-05-03T04:48:45;102819.16;;;4.87;72.84
68871;BME280;55906;52.278;6.808;2023-05-03T04:51:13;102817.72;;;4.91;72.91
68871;BME280;55906;52.278;6.808;2023-05-03T04:53:40;102825.78;;;4.94;72.72
68871;BME280;55906;52.278;6.808;2023-05-03T04:56:06;102833.06;;;4.98;72.83
68871;BME280;55906;52.278;6.808;2023-05-03T04:58:33;102831.59;;;5.01;72.29
68871;BME280;55906;52.278;6.808;2023-05-03T05:01:00;102831.97;;;5.06;72.56
68871;BME280;55906;52.278;6.808;2023-05-03T05:03:27;102832.22;;;5.09;72.60
68871;BME280;55906;52.278;6.808;2023-05-03T05:05:54;102842.78;;;5.10;72.63
68871;BME280;55906;52.278;6.808;2023-05-03T05:08:22;102845.88;;;5.17;73.07
68871;BME280;55906;52.278;6.808;2023-05-03T05:10:49;102849.00;;;5.23;72.17
68871;BME280;55906;52.278;6.808;2023-05-03T05:13:16;102847.66;;;5.28;72.88
68871;BME280;55906;52.278;6.808;2023-05-03T05:15:43;102840.31;;;5.34;72.78
68871;BME280;55906;52.278;6.808;2023-05-03T05:18:09;102845.09;;;5.39;72.25
68871;BME280;55906;52.278;6.808;2023-05-03T05:20:36;102846.50;;;5.46;72.35
68871;BME280;55906;52.278;6.808;2023-05-03T05:23:02;102842.41;;;5.50;72.46
68871;BME280;55906;52.278;6.808;2023-05-03T05:25:30;102850.06;;;5.58;71.98
68871;BME280;55906;52.278;6.808;2023-05-03T05:27:57;102860.19;;;5.65;72.37
68871;BME280;55906;52.278;6.808;2023-05-03T05:30:24;102859.97;;;5.74;72.09
68871;BME280;55906;52.278;6.808;2023-05-03T05:32:50;102863.19;;;5.82;71.44
68871;BME280;55906;52.278;6.808;2023-05-03T05:35:17;102865.47;;;5.89;71.26
68871;BME280;55906;52.278;6.808;2023-05-03T05:37:43;102867.00;;;5.97;71.23
68871;BME280;55906;52.278;6.808;2023-05-03T05:40:11;102868.28;;;6.02;71.17
68871;BME280;55906;52.278;6.808;2023-05-03T05:42:39;102867.16;;;6.10;71.93
68871;BME280;55906;52.278;6.808;2023-05-03T05:45:07;102863.06;;;6.14;71.21
68871;BME280;55906;52.278;6.808;2023-05-03T05:47:33;102868.88;;;6.21;71.07
68871;BME280;55906;52.278;6.808;2023-05-03T05:50:00;102872.41;;;6.33;70.23
68871;BME280;55906;52.278;6.808;2023-05-03T05:52:27;102878.31;;;6.42;70.67
68871;BME280;55906;52.278;6.808;2023-05-03T05:54:54;102882.69;;;6.54;70.95
68871;BME280;55906;52.278;6.808;2023-05-03T05:57:21;102875.50;;;6.63;70.41
68871;BME280;55906;52.278;6.808;2023-05-03T05:59:49;102874.59;;;6.74;69.88
68871;BME280;55906;52.278;6.808;2023-05-03T06:02:15;102875.50;;;6.86;69.88
68871;BME280;55906;52.278;6.808;2023-05-03T06:04:43;102875.59;;;6.99;69.14
68871;BME280;55906;52.278;6.808;2023-05-03T06:07:10;102875.56;;;7.11;68.65
68871;BME280;55906;52.278;6.808;2023-05-03T06:09:37;102877.56;;;7.27;68.58
68871;BME280;55906;52.278;6.808;2023-05-03T06:12:04;102875.03;;;7.40;68.20
68871;BME280;55906;52.278;6.808;2023-05-03T06:14:31;102877.72;;;7.53;67.86
68871;BME280;55906;52.278;6.808;2023-05-03T06:16:59;102871.84;;;7.69;66.97
68871;BME280;55906;52.278;6.808;2023-05-03T06:19:26;102872.38;;;7.77;67.26
68871;BME280;55906;52.278;6.808;2023-05-03T06:21:52;102874.16;;;7.89;66.51
68871;BME280;55906;52.278;6.808;2023-05-03T06:24:19;102877.50;;;8.00;66.38
68871;BME280;55906;52.278;6.808;2023-05-03T06:26:46;102881.56;;;8.08;66.32
68871;BME280;55906;52.278;6.808;2023-05-03T06:29:13;102885.63;;;8.16;65.57
68871;BME280;55906;52.278;6.808;2023-05-03T06:31:39;102883.13;;;8.31;65.70
68871;BME280;55906;52.278;6.808;2023-05-03T06:34:08;102889.22;;;8.43;65.49
68871;BME280;55906;52.278;6.808;2023-05-03T06:36:35;102886.59;;;8.56;65.28
68871;BME280;55906;52.278;6.808;2023-05-03T06:39:02;102883.88;;;8.68;63.90
68871;BME280;55906;52.278;6.808;2023-05-03T06:41:29;102881.06;;;8.78;63.82
68871;BME280;55906;52.278;6.808;2023-05-03T06:43:57;102885.41;;;8.91;63.22
68871;BME280;55906;52.278;6.808;2023-05-03T06:46:23;102887.28;;;9.07;62.96
68871;BME280;55906;52.278;6.808;2023-05-03T06:48:50;102874.06;;;9.18;62.24
68871;BME280;55906;52.278;6.808;2023-05-03T06:51:21;102881.19;;;9.34;62.39
68871;BME280;55906;52.278;6.808;2023-05-03T06:53:52;102880.06;;;9.44;61.59
68871;BME280;55906;52.278;6.808;2023-05-03T06:56:18;102871.13;;;9.55;61.30
68871;BME280;55906;52.278;6.808;2023-05-03T06:58:45;102870.06;;;9.66;61.26
68871;BME280;55906;52.278;6.808;2023-05-03T07:01:12;102871.72;;;9.79;61.19
68871;BME280;55906;52.278;6.808;2023-05-03T07:03:39;102855.88;;;9.92;60.52
68871;BME280;55906;52.278;6.808;2023-05-03T07:06:06;102850.38;;;10.02;59.59
68871;BME280;55906;52.278;6.808;2023-05-03T07:08:34;102854.53;;;10.13;58.43
68871;BME280;55906;52.278;6.808;2023-05-03T07:11:00;102850.13;;;10.27;59.36
68871;BME280;55906;52.278;6.808;2023-05-03T07:13:28;102846.81;;;10.44;58.71
68871;BME280;55906;52.278;6.808;2023-05-03T07:15:55;102849.31;;;10.57;57.81
68871;BME280;55906;52.278;6.808;2023-05-03T07:18:22;102843.78;;;10.68;56.19
68871;BME280;55906;52.278;6.808;2023-05-03T07:20:48;102839.28;;;10.81;55.96
68871;BME280;55906;52.278;6.808;2023-05-03T07:23:15;102838.91;;;10.90;55.32
68871;BME280;55906;52.278;6.808;2023-05-03T07:25:43;102852.44;;;11.12;55.55
68871;BME280;55906;52.278;6.808;2023-05-03T07:28:11;102851.31;;;11.23;54.28
68871;BME280;55906;52.278;6.808;2023-05-03T07:30:37;102850.31;;;11.21;53.53
68871;BME280;55906;52.278;6.808;2023-05-03T07:33:05;102847.69;;;11.21;53.53
68871;BME280;55906;52.278;6.808;2023-05-03T07:35:32;102852.22;;;11.40;52.90
68871;BME280;55906;52.278;6.808;2023-05-03T07:37:58;102846.06;;;11.40;51.58
68871;BME280;55906;52.278;6.808;2023-05-03T07:40:25;102845.63;;;11.65;52.34
68871;BME280;55906;52.278;6.808;2023-05-03T07:42:54;102847.28;;;11.63;52.27
68871;BME280;55906;52.278;6.808;2023-05-03T07:45:21;102841.72;;;11.73;50.53
68871;BME280;55906;52.278;6.808;2023-05-03T07:47:47;102836.50;;;11.58;49.57
68871;BME280;55906;52.278;6.808;2023-05-03T07:50:14;102830.84;;;11.83;51.56
68871;BME280;55906;52.278;6.808;2023-05-03T07:52:40;102831.59;;;11.80;49.85
68871;BME280;55906;52.278;6.808;2023-05-03T07:55:08;102826.88;;;11.91;48.91
68871;BME280;55906;52.278;6.808;2023-05-03T07:57:34;102832.75;;;12.20;49.81
68871;BME280;55906;52.278;6.808;2023-05-03T08:00:03;102833.41;;;12.15;48.27
68871;BME280;55906;52.278;6.808;2023-05-03T08:02:35;102836.66;;;12.10;49.83
68871;BME280;55906;52.278;6.808;2023-05-03T08:05:02;102835.44;;;12.03;49.74
68871;BME280;55906;52.278;6.808;2023-05-03T08:07:29;102835.31;;;12.18;49.65
68871;BME280;55906;52.278;6.808;2023-05-03T08:09:56;102830.56;;;12.29;49.57
68871;BME280;55906;52.278;6.808;2023-05-03T08:12:22;102838.28;;;12.60;48.54
68871;BME280;55906;52.278;6.808;2023-05-03T08:14:50;102827.41;;;12.71;47.99
68871;BME280;55906;52.278;6.808;2023-05-03T08:17:19;102827.91;;;13.00;47.83
68871;BME280;55906;52.278;6.808;2023-05-03T08:19:46;102825.03;;;13.13;45.93
68871;BME280;55906;52.278;6.808;2023-05-03T08:22:13;102824.13;;;13.30;46.21
68871;BME280;55906;52.278;6.808;2023-05-03T08:24:40;102820.34;;;13.25;46.14
68871;BME280;55906;52.278;6.808;2023-05-03T08:27:08;102809.44;;;13.37;46.03
68871;BME280;55906;52.278;6.808;2023-05-03T08:29:35;102808.97;;;13.45;45.19
68871;BME280;55906;52.278;6.808;2023-05-03T08:32:02;102811.19;;;13.56;44.98
68871;BME280;55906;52.278;6.808;2023-05-03T08:34:31;102810.06;;;13.70;44.96
68871;BME280;55906;52.278;6.808;2023-05-03T08:36:57;102812.09;;;13.96;45.12
68871;BME280;55906;52.278;6.808;2023-05-03T08:39:24;102814.63;;;14.14;44.82
68871;BME280;55906;52.278;6.808;2023-05-03T08:41:52;102806.06;;;14.40;43.12
68871;BME280;55906;52.278;6.808;2023-05-03T08:44:20;102802.09;;;14.72;43.41
68871;BME280;55906;52.278;6.808;2023-05-03T08:46:47;102808.38;;;14.97;42.05
68871;BME280;55906;52.278;6.808;2023-05-03T08:49:15;102801.53;;;15.26;42.20
68871;BME280;55906;52.278;6.808;2023-05-03T08:51:44;102803.34;;;15.73;43.13
68871;BME280;55906;52.278;6.808;2023-05-03T08:54:11;102791.47;;;16.13;43.32
68871;BME280;55906;52.278;6.808;2023-05-03T08:56:39;102796.41;;;16.54;42.35
68871;BME280;55906;52.278;6.808;2023-05-03T08:59:07;102797.66;;;16.92;40.23
68871;BME280;55906;52.278;6.808;2023-05-03T09:01:34;102790.78;;;17.29;40.82
68871;BME280;55906;52.278;6.808;2023-05-03T09:04:01;102789.59;;;17.79;41.49
68871;BME280;55906;52.278;6.808;2023-05-03T09:06:29;102791.75;;;17.94;39.32
68871;BME280;55906;52.278;6.808;2023-05-03T09:08:59;102789.50;;;18.44;35.74
68871;BME280;55906;52.278;6.808;2023-05-03T09:11:27;102795.91;;;18.88;38.55
68871;BME280;55906;52.278;6.808;2023-05-03T09:14:07;102783.81;;;19.46;37.65
68871;BME280;55906;52.278;6.808;2023-05-03T09:16:34;102790.59;;;19.29;36.16
68871;BME280;55906;52.278;6.808;2023-05-03T09:19:01;102786.03;;;19.64;37.18
68871;BME280;55906;52.278;6.808;2023-05-03T09:21:28;102791.09;;;19.97;36.58
68871;BME280;55906;52.278;6.808;2023-05-03T09:23:55;102790.78;;;20.30;34.32
68871;BME280;55906;52.278;6.808;2023-05-03T09:26:31;102777.31;;;20.80;34.55
68871;BME280;55906;52.278;6.808;2023-05-03T09:28:59;102782.19;;;21.08;34.47
68871;BME280;55906;52.278;6.808;2023-05-03T09:31:27;102776.38;;;21.39;33.48
68871;BME280;55906;52.278;6.808;2023-05-03T09:33:54;102774.72;;;21.51;33.17
68871;BME280;55906;52.278;6.808;2023-05-03T09:36:21;102779.25;;;21.56;32.86
68871;BME280;55906;52.278;6.808;2023-05-03T09:38:49;102775.94;;;21.79;32.23
68871;BME280;55906;52.278;6.808;2023-05-03T09:41:25;102774.59;;;22.20;29.05
68871;BME280;55906;52.278;6.808;2023-05-03T09:43:53;102767.59;;;22.41;30.06
68871;BME280;55906;52.278;6.808;2023-05-03T09:46:23;102768.75;;;22.79;30.14
68871;BME280;55906;52.278;6.808;2023-05-03T09:48:50;102772.41;;;22.89;29.91
68871;BME280;55906;52.278;6.808;2023-05-03T09:51:21;102776.09;;;23.06;28.28
68871;BME280;55906;52.278;6.808;2023-05-03T09:53:48;102771.50;;;22.84;28.31
68871;BME280;55906;52.278;6.808;2023-05-03T09:56:15;102775.16;;;22.96;29.69
68871;BME280;55906;52.278;6.808;2023-05-03T09:58:45;102770.66;;;22.94;28.25
68871;BME280;55906;52.278;6.808;2023-05-03T10:01:14;102770.38;;;22.51;27.60
68871;BME280;55906;52.278;6.808;2023-05-03T10:03:42;102770.69;;;23.00;28.86
68871;BME280;55906;52.278;6.808;2023-05-03T10:06:18;102769.06;;;23.37;27.44
68871;BME280;55906;52.278;6.808;2023-05-03T10:08:51;102764.75;;;23.76;26.77
68871;BME280;55906;52.278;6.808;2023-05-03T10:11:18;102771.94;;;23.86;27.30
68871;BME280;55906;52.278;6.808;2023-05-03T10:13:46;102768.38;;;24.27;27.53
68871;BME280;55906;52.278;6.808;2023-05-03T10:16:19;102761.16;;;23.81;26.19
68871;BME280;55906;52.278;6.808;2023-05-03T10:18:50;102759.38;;;24.23;27.01
68871;BME280;55906;52.278;6.808;2023-05-03T10:21:24;102760.25;;;23.75;25.81
68871;BME280;55906;52.278;6.808;2023-05-03T10:24:09;102752.22;;;24.14;24.93
68871;BME280;55906;52.278;6.808;2023-05-03T10:26:39;102748.59;;;24.61;26.38
68871;BME280;55906;52.278;6.808;2023-05-03T10:29:06;102750.41;;;24.25;24.64
68871;BME280;55906;52.278;6.808;2023-05-03T10:31:54;102754.00;;;23.94;25.29
68871;BME280;55906;52.278;6.808;2023-05-03T10:34:22;102746.81;;;24.74;25.28
68871;BME280;55906;52.278;6.808;2023-05-03T10:36:50;102745.03;;;24.53;26.09
68871;BME280;55906;52.278;6.808;2023-05-03T10:39:18;102730.59;;;25.00;25.24
68871;BME280;55906;52.278;6.808;2023-05-03T10:41:55;102733.09;;;25.38;23.54
68871;BME280;55906;52.278;6.808;2023-05-03T10:44:25;102744.66;;;25.66;24.20
68871;BME280;55906;52.278;6.808;2023-05-03T10:46:54;102739.50;;;25.17;24.28
68871;BME280;55906;52.278;6.808;2023-05-03T10:49:21;102728.53;;;25.50;23.96
68871;BME280;55906;52.278;6.808;2023-05-03T10:51:48;102732.03;;;25.69;22.49
68871;BME280;55906;52.278;6.808;2023-05-03T10:54:16;102734.56;;;25.92;23.72
68871;BME280;55906;52.278;6.808;2023-05-03T10:56:47;102735.56;;;25.79;23.87
68871;BME280;55906;52.278;6.808;2023-05-03T10:59:14;102737.13;;;26.10;23.46
68871;BME280;55906;52.278;6.808;2023-05-03T11:01:43;102732.94;;;25.67;23.86
68871;BME280;55906;52.278;6.808;2023-05-03T11:04:15;102732.94;;;25.68;22.76
68871;BME280;55906;52.278;6.808;2023-05-03T11:06:44;102736.09;;;26.25;23.06
68871;BME280;55906;52.278;6.808;2023-05-03T11:09:13;102733.00;;;25.53;23.53
68871;BME280;55906;52.278;6.808;2023-05-03T11:11:41;102740.78;;;26.06;23.11
68871;BME280;55906;52.278;6.808;2023-05-03T11:14:08;102733.38;;;24.52;24.52
68871;BME280;55906;52.278;6.808;2023-05-03T11:16:36;102732.44;;;24.82;22.50
68871;BME280;55906;52.278;6.808;2023-05-03T11:19:05;102727.00;;;25.04;22.62
68871;BME280;55906;52.278;6.808;2023-05-03T11:21:33;102725.28;;;24.60;23.67
68871;BME280;55906;52.278;6.808;2023-05-03T11:24:00;102721.72;;;24.44;23.11
68871;BME280;55906;52.278;6.808;2023-05-03T11:26:27;102720.78;;;24.73;23.17
68871;BME280;55906;52.278;6.808;2023-05-03T11:28:53;102717.75;;;25.49;22.94
68871;BME280;55906;52.278;6.808;2023-05-03T11:31:20;102711.53;;;25.39;22.55
68871;BME280;55906;52.278;6.808;2023-05-03T11:33:48;102718.28;;;26.06;23.04
68871;BME280;55906;52.278;6.808;2023-05-03T11:36:15;102715.28;;;26.41;22.76
68871;BME280;55906;52.278;6.808;2023-05-03T11:38:44;102697.66;;;26.86;21.67
68871;BME280;55906;52.278;6.808;2023-05-03T11:41:11;102704.88;;;26.86;21.90
68871;BME280;55906;52.278;6.808;2023-05-03T11:43:40;102701.84;;;27.12;21.86
68871;BME280;55906;52.278;6.808;2023-05-03T11:46:07;102701.44;;;26.71;22.27
68871;BME280;55906;52.278;6.808;2023-05-03T11:48:34;102699.78;;;27.30;21.99
68871;BME280;55906;52.278;6.808;2023-05-03T11:51:06;102697.81;;;27.45;20.38
68871;BME280;55906;52.278;6.808;2023-05-03T11:53:36;102691.13;;;27.07;20.75
68871;BME280;55906;52.278;6.808;2023-05-03T11:56:06;102684.44;;;26.63;21.47
68871;BME280;55906;52.278;6.808;2023-05-03T11:58:33;102687.44;;;27.76;20.84
68871;BME280;55906;52.278;6.808;2023-05-03T12:01:00;102686.31;;;27.29;21.16
68871;BME280;55906;52.278;6.808;2023-05-03T12:03:28;102694.47;;;27.24;20.99
68871;BME280;55906;52.278;6.808;2023-05-03T12:05:55;102671.63;;;27.47;21.19
68871;BME280;55906;52.278;6.808;2023-05-03T12:08:27;102681.31;;;28.15;20.36
68871;BME280;55906;52.278;6.808;2023-05-03T12:10:54;102687.84;;;28.03;20.52
68871;BME280;55906;52.278;6.808;2023-05-03T12:13:31;102670.06;;;28.40;19.02
68871;BME280;55906;52.278;6.808;2023-05-03T12:16:00;102670.94;;;28.42;19.76
68871;BME280;55906;52.278;6.808;2023-05-03T12:18:44;102674.06;;;28.17;19.30
68871;BME280;55906;52.278;6.808;2023-05-03T12:21:11;102667.94;;;28.08;20.49
68871;BME280;55906;52.278;6.808;2023-05-03T12:23:39;102674.16;;;28.60;20.49
68871;BME280;55906;52.278;6.808;2023-05-03T12:26:06;102677.09;;;29.35;19.19
68871;BME280;55906;52.278;6.808;2023-05-03T12:28:34;102664.88;;;29.17;18.89
68871;BME280;55906;52.278;6.808;2023-05-03T12:31:01;102657.22;;;29.34;18.63
68871;BME280;55906;52.278;6.808;2023-05-03T12:33:28;102661.94;;;30.00;18.89
68871;BME280;55906;52.278;6.808;2023-05-03T12:35:55;102656.22;;;29.75;19.05
68871;BME280;55906;52.278;6.808;2023-05-03T12:38:22;102656.53;;;29.63;19.18
68871;BME280;55906;52.278;6.808;2023-05-03T12:40:49;102649.03;;;30.10;18.85
68871;BME280;55906;52.278;6.808;2023-05-03T12:43:15;102646.59;;;29.99;18.47
68871;BME280;55906;52.278;6.808;2023-05-03T12:45:43;102643.03;;;29.23;19.46
68871;BME280;55906;52.278;6.808;2023-05-03T12:48:10;102638.06;;;28.58;19.70
68871;BME280;55906;52.278;6.808;2023-05-03T12:50:37;102629.00;;;29.04;19.10
68871;BME280;55906;52.278;6.808;2023-05-03T12:53:04;102627.38;;;29.34;19.06
68871;BME280;55906;52.278;6.808;2023-05-03T12:55:30;102626.22;;;29.81;18.74
68871;BME280;55906;52.278;6.808;2023-05-03T12:57:58;102624.06;;;29.96;18.80
68871;BME280;55906;52.278;6.808;2023-05-03T13:00:25;102618.69;;;30.57;18.93
68871;BME280;55906;52.278;6.808;2023-05-03T13:02:53;102610.50;;;30.28;18.74
68871;BME280;55906;52.278;6.808;2023-05-03T13:05:20;102612.47;;;30.23;18.74